createdAt,value
2018-12-27T00:00:23.371Z,21.30
2018-12-27T00:02:55.003Z,21.30
2018-12-27T00:05:25.148Z,21.30
2018-12-27T00:07:55.102Z,21.30
2018-12-27T00:10:25.098Z,21.30
2018-12-27T00:12:55.118Z,21.20
2018-12-27T00:15:25.147Z,21.20
2018-12-27T00:17:55.106Z,21.10
2018-12-27T00:20:25.122Z,21.10
2018-12-27T00:22:55.195Z,21.10
2018-12-27T00:25:25.143Z,21.00
2018-12-27T00:27:55.110Z,21.00
2018-12-27T00:30:25.486Z,21.00
2018-12-27T00:33:02.959Z,20.90
2018-12-27T00:35:27.785Z,20.80
2018-12-27T00:37:58.154Z,20.80
2018-12-27T00:40:28.494Z,20.70
2018-12-27T00:42:59.996Z,20.70
2018-12-27T00:45:30.370Z,20.70
2018-12-27T00:48:00.659Z,20.70
2018-12-27T00:50:30.949Z,20.70
2018-12-27T00:53:01.251Z,20.80
2018-12-27T00:55:31.614Z,20.80
2018-12-27T00:58:01.909Z,20.90
2018-12-27T01:00:32.233Z,20.90
2018-12-27T01:03:10.849Z,21.00
2018-12-27T01:05:35.629Z,21.00
2018-12-27T01:08:05.917Z,21.00
2018-12-27T01:10:36.237Z,21.10
2018-12-27T01:13:06.569Z,21.10
2018-12-27T01:15:36.934Z,21.10
2018-12-27T01:18:07.351Z,21.20
2018-12-27T01:20:37.648Z,21.20
2018-12-27T01:23:07.958Z,21.20
2018-12-27T01:25:38.251Z,21.20
2018-12-27T01:28:08.542Z,21.20
2018-12-27T01:30:38.918Z,21.20
2018-12-27T01:33:09.206Z,21.20
2018-12-27T01:35:39.505Z,21.30
2018-12-27T01:38:09.844Z,21.30
2018-12-27T01:40:40.163Z,21.30
2018-12-27T01:43:10.462Z,21.30
2018-12-27T01:45:40.802Z,21.30
2018-12-27T01:48:11.118Z,21.30
2018-12-27T01:50:41.471Z,21.30
2018-12-27T01:53:11.876Z,21.30
2018-12-27T01:55:42.219Z,21.30
2018-12-27T01:58:12.588Z,21.30
2018-12-27T02:00:42.911Z,21.30
2018-12-27T02:03:13.217Z,21.40
2018-12-27T02:05:43.521Z,21.40
2018-12-27T02:08:13.857Z,21.40
2018-12-27T02:10:45.038Z,21.40
2018-12-27T02:13:15.337Z,21.40
2018-12-27T02:15:45.744Z,21.40
2018-12-27T02:18:16.125Z,21.40
2018-12-27T02:20:46.447Z,21.40
2018-12-27T02:23:16.767Z,21.40
2018-12-27T02:25:47.063Z,21.30
2018-12-27T02:28:17.431Z,21.30
2018-12-27T02:30:47.726Z,21.30
2018-12-27T02:33:18.021Z,21.30
2018-12-27T02:35:48.316Z,21.20
2018-12-27T02:38:18.611Z,21.20
2018-12-27T02:40:48.926Z,21.20
2018-12-27T02:43:19.270Z,21.10
2018-12-27T02:45:49.549Z,21.10
2018-12-27T02:48:19.848Z,21.10
2018-12-27T02:50:50.234Z,21.00
2018-12-27T02:53:20.535Z,21.00
2018-12-27T02:55:50.870Z,20.90
2018-12-27T02:58:21.172Z,20.90
2018-12-27T03:00:51.567Z,20.90
2018-12-27T03:03:21.904Z,20.80
2018-12-27T03:05:52.284Z,20.80
2018-12-27T03:08:22.574Z,20.80
2018-12-27T03:10:52.868Z,20.80
2018-12-27T03:13:23.159Z,20.70
2018-12-27T03:15:53.609Z,20.80
2018-12-27T03:18:23.990Z,20.80
2018-12-27T03:20:54.307Z,20.80
2018-12-27T03:23:24.720Z,20.90
2018-12-27T03:25:55.019Z,20.90
2018-12-27T03:28:25.416Z,20.90
2018-12-27T03:30:55.707Z,21.00
2018-12-27T03:33:26.006Z,21.00
2018-12-27T03:35:56.302Z,21.10
2018-12-27T03:38:26.603Z,21.10
2018-12-27T03:40:56.962Z,21.10
2018-12-27T03:43:27.257Z,21.10
2018-12-27T03:45:57.547Z,21.20
2018-12-27T03:48:27.838Z,21.20
2018-12-27T03:50:58.142Z,21.20
2018-12-27T03:53:28.446Z,21.20
2018-12-27T03:55:58.740Z,21.20
2018-12-27T03:58:29.042Z,21.20
2018-12-27T04:00:59.355Z,21.20
2018-12-27T04:03:29.709Z,21.20
2018-12-27T04:06:00.001Z,21.30
2018-12-27T04:08:30.289Z,21.30
2018-12-27T04:11:00.614Z,21.30
2018-12-27T04:13:30.902Z,21.30
2018-12-27T04:16:00.888Z,21.30
2018-12-27T04:18:30.829Z,21.30
2018-12-27T04:21:00.789Z,21.30
2018-12-27T04:23:30.834Z,21.30
2018-12-27T04:26:00.816Z,21.30
2018-12-27T04:28:30.794Z,21.30
2018-12-27T04:31:00.738Z,21.40
2018-12-27T04:33:30.741Z,21.40
2018-12-27T04:36:00.768Z,21.40
2018-12-27T04:38:30.803Z,21.40
2018-12-27T04:41:00.758Z,21.40
2018-12-27T04:43:30.703Z,21.40
2018-12-27T04:46:00.691Z,21.40
2018-12-27T04:48:30.638Z,21.30
2018-12-27T04:51:00.606Z,21.30
2018-12-27T04:53:30.557Z,21.30
2018-12-27T04:56:00.527Z,21.30
2018-12-27T04:58:30.515Z,21.30
2018-12-27T05:01:00.471Z,21.30
2018-12-27T05:03:30.431Z,21.20
2018-12-27T05:06:00.376Z,21.20
2018-12-27T05:08:30.339Z,21.10
2018-12-27T05:11:00.380Z,21.10
2018-12-27T05:13:30.476Z,21.10
2018-12-27T05:16:00.443Z,21.10
2018-12-27T05:18:30.405Z,21.10
2018-12-27T05:21:00.375Z,21.10
2018-12-27T05:23:30.333Z,21.10
2018-12-27T05:26:00.322Z,21.10
2018-12-27T05:28:30.280Z,21.20
2018-12-27T05:31:00.314Z,21.20
2018-12-27T05:33:30.287Z,21.20
2018-12-27T05:36:00.370Z,21.30
2018-12-27T05:38:30.317Z,21.30
2018-12-27T05:41:00.298Z,21.30
2018-12-27T05:43:30.285Z,21.30
2018-12-27T05:46:00.306Z,21.30
2018-12-27T05:48:30.256Z,21.30
2018-12-27T05:51:00.197Z,21.30
2018-12-27T05:53:30.149Z,21.30
2018-12-27T05:56:00.123Z,21.30
2018-12-27T05:58:30.143Z,21.30
2018-12-27T06:01:00.182Z,21.30
2018-12-27T06:03:30.185Z,21.30
2018-12-27T06:06:00.160Z,21.30
2018-12-27T06:08:30.109Z,21.40
2018-12-27T06:11:00.161Z,21.40
2018-12-27T06:13:30.145Z,21.40
2018-12-27T06:16:00.096Z,21.30
2018-12-27T06:18:30.074Z,21.30
2018-12-27T06:21:00.014Z,21.30
2018-12-27T06:23:29.983Z,21.30
2018-12-27T06:26:00.085Z,21.30
2018-12-27T06:28:30.021Z,21.20
2018-12-27T06:31:00.957Z,21.20
2018-12-27T06:33:30.910Z,21.20
2018-12-27T06:36:00.987Z,21.10
2018-12-27T06:38:30.926Z,21.10
2018-12-27T06:41:00.886Z,21.10
2018-12-27T06:43:30.847Z,21.00
2018-12-27T06:46:00.885Z,21.00
2018-12-27T06:48:30.937Z,20.90
2018-12-27T06:51:01.001Z,20.90
2018-12-27T06:53:30.969Z,20.80
2018-12-27T06:56:00.922Z,20.80
2018-12-27T06:58:37.551Z,20.80
2018-12-27T07:01:02.566Z,20.80
2018-12-27T07:03:32.531Z,20.70
2018-12-27T07:06:02.581Z,20.70
2018-12-27T07:08:32.628Z,20.80
2018-12-27T07:11:02.662Z,20.80
2018-12-27T07:13:32.638Z,20.80
2018-12-27T07:16:02.663Z,20.80
2018-12-27T07:18:32.629Z,20.90
2018-12-27T07:21:02.602Z,20.90
2018-12-27T07:23:32.600Z,21.00
2018-12-27T07:26:02.568Z,21.00
2018-12-27T07:28:32.547Z,21.10
2018-12-27T07:31:02.550Z,21.10
2018-12-27T07:33:32.631Z,21.20
2018-12-27T07:36:02.609Z,21.20
2018-12-27T07:38:32.663Z,21.30
2018-12-27T07:41:02.626Z,21.30
2018-12-27T07:43:32.583Z,21.30
2018-12-27T07:46:02.596Z,21.40
2018-12-27T07:48:32.556Z,21.40
2018-12-27T07:51:02.603Z,21.40
2018-12-27T07:53:32.581Z,21.40
2018-12-27T07:56:02.599Z,21.40
2018-12-27T07:58:32.633Z,21.40
2018-12-27T08:01:02.662Z,21.40
2018-12-27T08:03:32.714Z,21.40
2018-12-27T08:06:02.721Z,21.40
2018-12-27T08:08:32.802Z,21.40
2018-12-27T08:11:02.763Z,21.40
2018-12-27T08:13:32.765Z,21.30
2018-12-27T08:16:02.801Z,21.30
2018-12-27T08:18:32.767Z,21.30
2018-12-27T08:21:02.730Z,21.30
2018-12-27T08:23:32.691Z,21.20
2018-12-27T08:26:02.722Z,21.20
2018-12-27T08:28:32.743Z,21.10
2018-12-27T08:31:02.733Z,21.10
2018-12-27T08:33:32.693Z,21.10
2018-12-27T08:36:02.662Z,21.00
2018-12-27T08:38:32.615Z,21.00
2018-12-27T08:41:02.598Z,21.00
2018-12-27T08:43:32.594Z,20.90
2018-12-27T08:46:02.550Z,20.90
2018-12-27T08:48:32.534Z,20.90
2018-12-27T08:51:02.573Z,20.80
2018-12-27T08:53:32.601Z,20.80
2018-12-27T08:56:02.590Z,20.80
2018-12-27T08:58:32.565Z,20.80
2018-12-27T09:01:02.538Z,20.80
2018-12-27T09:03:32.521Z,20.80
2018-12-27T09:06:02.546Z,20.80
2018-12-27T09:08:32.529Z,20.90
2018-12-27T09:11:02.503Z,20.90
2018-12-27T09:13:32.466Z,20.90
2018-12-27T09:16:02.434Z,21.00
2018-12-27T09:18:32.390Z,21.00
2018-12-27T09:21:02.358Z,21.10
2018-12-27T09:23:32.387Z,21.10
2018-12-27T09:26:02.417Z,21.10
2018-12-27T09:28:32.473Z,21.20
2018-12-27T09:31:02.462Z,21.20
2018-12-27T09:33:32.419Z,21.30
2018-12-27T09:36:02.461Z,21.30
2018-12-27T09:38:32.430Z,21.30
2018-12-27T09:41:02.457Z,21.40
2018-12-27T09:43:32.450Z,21.40
2018-12-27T09:46:02.421Z,21.40
2018-12-27T09:48:32.373Z,21.40
2018-12-27T09:51:02.414Z,21.50
2018-12-27T09:53:32.369Z,21.50
2018-12-27T09:56:02.333Z,21.50
2018-12-27T09:58:32.400Z,21.50
2018-12-27T10:01:02.399Z,21.50
2018-12-27T10:03:32.425Z,21.40
2018-12-27T10:06:02.439Z,21.40
2018-12-27T10:08:32.468Z,21.40
2018-12-27T10:11:02.447Z,21.30
2018-12-27T10:13:32.432Z,21.30
2018-12-27T10:16:02.388Z,21.30
2018-12-27T10:18:32.342Z,21.30
2018-12-27T10:21:02.319Z,21.20
2018-12-27T10:23:34.173Z,21.20
2018-12-27T10:26:04.297Z,21.20
2018-12-27T10:28:34.303Z,21.10
2018-12-27T10:31:04.326Z,21.10
2018-12-27T10:33:34.354Z,21.10
2018-12-27T10:36:04.349Z,21.00
2018-12-27T10:38:34.410Z,21.00
2018-12-27T10:41:04.398Z,20.90
2018-12-27T10:43:34.371Z,20.90
2018-12-27T10:46:04.335Z,20.90
2018-12-27T10:48:34.439Z,20.90
2018-12-27T10:51:04.521Z,20.90
2018-12-27T10:53:34.594Z,20.90
2018-12-27T10:56:04.622Z,20.90
2018-12-27T10:58:34.622Z,20.90
2018-12-27T11:01:04.597Z,20.90
2018-12-27T11:03:34.567Z,20.90
2018-12-27T11:06:04.570Z,20.90
2018-12-27T11:08:34.790Z,20.90
2018-12-27T11:11:04.821Z,20.90
2018-12-27T11:13:34.803Z,20.90
2018-12-27T11:16:04.821Z,20.90
2018-12-27T11:18:34.902Z,20.90
2018-12-27T11:21:04.865Z,20.90
2018-12-27T11:23:34.836Z,20.90
2018-12-27T11:26:04.881Z,20.90
2018-12-27T11:28:34.969Z,20.90
2018-12-27T11:31:05.138Z,20.90
2018-12-27T11:33:35.105Z,20.90
2018-12-27T11:36:05.269Z,20.90
2018-12-27T11:38:35.283Z,20.90
2018-12-27T11:41:05.318Z,20.90
2018-12-27T11:43:35.509Z,20.90
2018-12-27T11:46:05.601Z,20.80
2018-12-27T11:48:35.566Z,20.80
2018-12-27T11:51:05.613Z,20.80
2018-12-27T11:53:35.586Z,20.80
2018-12-27T11:56:05.581Z,20.80
2018-12-27T11:58:35.570Z,20.80
2018-12-27T12:01:05.590Z,20.70
2018-12-27T12:03:35.555Z,20.70
2018-12-27T12:06:05.537Z,20.70
2018-12-27T12:08:35.494Z,20.60
2018-12-27T12:11:05.496Z,20.60
2018-12-27T12:13:35.494Z,20.60
2018-12-27T12:16:05.465Z,20.50
2018-12-27T12:18:35.519Z,20.50
2018-12-27T12:21:05.576Z,20.50
2018-12-27T12:23:35.598Z,20.40
2018-12-27T12:26:05.561Z,20.40
2018-12-27T12:28:35.537Z,20.40
2018-12-27T12:31:05.703Z,20.30
2018-12-27T12:33:35.763Z,20.30
2018-12-27T12:36:10.549Z,20.30
2018-12-27T12:38:37.593Z,20.20
2018-12-27T12:41:07.674Z,20.20
2018-12-27T12:43:37.734Z,20.20
2018-12-27T12:46:07.773Z,20.20
2018-12-27T12:48:37.738Z,20.20
2018-12-27T12:51:08.016Z,20.20
2018-12-27T12:53:38.016Z,20.20
2018-12-27T12:56:07.977Z,20.20
2018-12-27T12:58:38.100Z,20.30
2018-12-27T13:01:08.243Z,20.30
2018-12-27T13:03:38.361Z,20.40
2018-12-27T13:06:08.419Z,20.40
2018-12-27T13:08:39.455Z,20.50
2018-12-27T13:11:09.611Z,20.50
2018-12-27T13:13:39.619Z,20.50
2018-12-27T13:16:09.690Z,20.60
2018-12-27T13:18:39.796Z,20.70
2018-12-27T13:21:09.955Z,20.70
2018-12-27T13:23:39.953Z,20.80
2018-12-27T13:26:10.002Z,20.80
2018-12-27T13:28:40.433Z,20.90
2018-12-27T13:31:10.431Z,21.00
2018-12-27T13:33:40.435Z,21.10
2018-12-27T13:36:10.767Z,21.10
2018-12-27T13:38:40.896Z,21.10
2018-12-27T13:41:10.878Z,21.20
2018-12-27T13:43:40.882Z,21.30
2018-12-27T13:46:10.854Z,21.30
2018-12-27T13:48:40.806Z,21.30
2018-12-27T13:51:10.987Z,21.40
2018-12-27T13:53:40.985Z,21.40
2018-12-27T13:56:11.094Z,21.50
2018-12-27T13:58:41.370Z,21.50
2018-12-27T14:01:11.460Z,21.50
2018-12-27T14:03:41.607Z,21.50
2018-12-27T14:06:11.758Z,21.50
2018-12-27T14:08:41.838Z,21.50
2018-12-27T14:11:11.977Z,21.50
2018-12-27T14:13:42.055Z,21.50
2018-12-27T14:16:12.154Z,21.60
2018-12-27T14:18:42.203Z,21.60
2018-12-27T14:21:12.262Z,21.70
2018-12-27T14:23:42.274Z,21.70
2018-12-27T14:26:12.245Z,21.80
2018-12-27T14:28:42.238Z,21.80
2018-12-27T14:31:12.273Z,21.80
2018-12-27T14:33:42.363Z,21.80
2018-12-27T14:36:12.327Z,21.90
2018-12-27T14:38:42.300Z,21.90
2018-12-27T14:41:12.319Z,21.90
2018-12-27T14:43:42.286Z,21.90
2018-12-27T14:46:12.307Z,22.00
2018-12-27T14:48:42.254Z,22.00
2018-12-27T14:51:12.454Z,22.00
2018-12-27T14:53:42.500Z,22.00
2018-12-27T14:56:12.591Z,22.10
2018-12-27T14:58:42.746Z,22.10
2018-12-27T15:01:12.781Z,22.10
2018-12-27T15:03:43.078Z,22.10
2018-12-27T15:06:13.525Z,22.10
2018-12-27T15:08:43.882Z,22.10
2018-12-27T15:11:14.362Z,22.10
2018-12-27T15:13:45.228Z,22.10
2018-12-27T15:16:15.499Z,22.10
2018-12-27T15:18:45.737Z,22.00
2018-12-27T15:21:16.213Z,22.00
2018-12-27T15:23:46.500Z,22.00
2018-12-27T15:26:16.777Z,22.00
2018-12-27T15:28:47.092Z,22.00
2018-12-27T15:31:17.196Z,21.90
2018-12-27T15:33:47.238Z,21.80
2018-12-27T15:36:17.262Z,21.80
2018-12-27T15:38:47.323Z,21.80
2018-12-27T15:41:17.402Z,21.80
2018-12-27T15:43:47.752Z,21.80
2018-12-27T15:46:17.913Z,21.70
2018-12-27T15:48:47.995Z,21.70
2018-12-27T15:51:18.133Z,21.70
2018-12-27T15:53:48.228Z,21.60
2018-12-27T15:56:18.344Z,21.60
2018-12-27T15:58:48.494Z,21.50
2018-12-27T16:01:18.632Z,21.50
2018-12-27T16:03:48.758Z,21.40
2018-12-27T16:06:18.819Z,21.40
2018-12-27T16:08:48.939Z,21.30
2018-12-27T16:11:18.982Z,21.30
2018-12-27T16:13:49.097Z,21.30
2018-12-27T16:16:19.156Z,21.30
2018-12-27T16:18:49.226Z,21.30
2018-12-27T16:21:19.420Z,21.30
2018-12-27T16:23:49.574Z,21.30
2018-12-27T16:26:19.676Z,21.30
2018-12-27T16:28:49.736Z,21.30
2018-12-27T16:31:19.897Z,21.30
2018-12-27T16:33:50.142Z,21.40
2018-12-27T16:36:20.235Z,21.40
2018-12-27T16:38:50.318Z,21.50
2018-12-27T16:41:20.399Z,21.50
2018-12-27T16:43:50.500Z,21.60
2018-12-27T16:46:20.576Z,21.70
2018-12-27T16:48:50.734Z,21.70
2018-12-27T16:51:20.791Z,21.80
2018-12-27T16:53:50.920Z,21.80
2018-12-27T16:56:20.996Z,21.80
2018-12-27T16:58:51.203Z,21.80
2018-12-27T17:01:21.463Z,21.90
2018-12-27T17:03:51.642Z,21.90
2018-12-27T17:06:21.728Z,21.90
2018-12-27T17:08:51.814Z,21.90
2018-12-27T17:11:21.956Z,21.90
2018-12-27T17:13:52.024Z,21.90
2018-12-27T17:16:22.104Z,22.00
2018-12-27T17:18:52.284Z,22.00
2018-12-27T17:21:22.395Z,22.00
2018-12-27T17:23:52.467Z,22.00
2018-12-27T17:26:22.568Z,22.00
2018-12-27T17:28:52.636Z,22.00
2018-12-27T17:31:22.774Z,21.90
2018-12-27T17:33:52.966Z,21.90
2018-12-27T17:36:23.042Z,21.90
2018-12-27T17:38:53.143Z,21.90
2018-12-27T17:41:24.179Z,21.80
2018-12-27T17:43:54.625Z,21.80
2018-12-27T17:46:24.757Z,21.80
2018-12-27T17:48:54.864Z,21.80
2018-12-27T17:51:24.939Z,21.70
2018-12-27T17:53:55.010Z,21.70
2018-12-27T17:56:25.097Z,21.70
2018-12-27T17:58:55.244Z,21.60
2018-12-27T18:01:25.392Z,21.60
2018-12-27T18:03:55.490Z,21.60
2018-12-27T18:06:25.583Z,21.60
2018-12-27T18:08:55.667Z,21.50
2018-12-27T18:11:25.718Z,21.50
2018-12-27T18:13:56.116Z,21.40
2018-12-27T18:16:26.373Z,21.40
2018-12-27T18:18:56.550Z,21.40
2018-12-27T18:21:27.407Z,21.30
2018-12-27T18:23:57.730Z,21.30
2018-12-27T18:26:27.811Z,21.30
2018-12-27T18:28:58.064Z,21.40
2018-12-27T18:31:28.211Z,21.40
2018-12-27T18:33:58.336Z,21.40
2018-12-27T18:36:28.541Z,21.40
2018-12-27T18:38:58.662Z,21.50
2018-12-27T18:41:28.724Z,21.50
2018-12-27T18:43:58.833Z,21.60
2018-12-27T18:46:35.220Z,21.60
2018-12-27T18:49:05.883Z,21.70
2018-12-27T18:51:37.160Z,21.70
2018-12-27T18:54:07.564Z,21.80
2018-12-27T18:56:39.325Z,21.80
2018-12-27T18:59:22.500Z,21.90
2018-12-27T19:01:54.014Z,21.90
2018-12-27T19:04:24.372Z,21.90
2018-12-27T19:06:54.480Z,21.90
2018-12-27T19:09:24.551Z,21.90
2018-12-27T19:12:31.633Z,21.90
2018-12-27T19:15:05.645Z,21.90
2018-12-27T19:17:44.934Z,22.00
2018-12-27T19:20:15.218Z,22.00
2018-12-27T19:23:16.980Z,22.00
2018-12-27T19:25:47.141Z,22.00
2018-12-27T19:28:17.345Z,22.00
2018-12-27T19:30:47.635Z,22.00
2018-12-27T19:33:17.952Z,22.00
2018-12-27T19:35:48.245Z,21.90
2018-12-27T19:38:19.711Z,21.90
2018-12-27T19:40:49.830Z,21.90
2018-12-27T19:43:19.910Z,21.80
2018-12-27T19:45:50.049Z,21.80
2018-12-27T19:48:20.128Z,21.80
2018-12-27T19:50:50.246Z,21.80
2018-12-27T19:53:20.291Z,21.80
2018-12-27T19:55:50.460Z,21.70
2018-12-27T19:58:20.627Z,21.70
2018-12-27T20:00:50.915Z,21.70
2018-12-27T20:03:21.096Z,21.70
2018-12-27T20:05:53.088Z,21.70
2018-12-27T20:08:23.430Z,21.60
2018-12-27T20:10:53.846Z,21.60
2018-12-27T20:13:23.974Z,21.60
2018-12-27T20:15:54.095Z,21.60
2018-12-27T20:18:24.218Z,21.50
2018-12-27T20:20:54.178Z,21.50
2018-12-27T20:23:24.162Z,21.50
2018-12-27T20:25:55.451Z,21.50
2018-12-27T20:28:25.494Z,21.50
2018-12-27T20:30:55.480Z,21.50
2018-12-27T20:33:25.443Z,21.40
2018-12-27T20:35:55.514Z,21.40
2018-12-27T20:38:25.482Z,21.40
2018-12-27T20:40:55.451Z,21.40
2018-12-27T20:43:29.069Z,21.40
2018-12-27T20:45:59.204Z,21.30
2018-12-27T20:48:29.195Z,21.30
2018-12-27T20:50:59.434Z,21.30
2018-12-27T20:53:29.685Z,21.30
2018-12-27T20:55:59.743Z,21.30
2018-12-27T20:58:29.813Z,21.30
2018-12-27T21:00:59.817Z,21.20
2018-12-27T21:03:29.790Z,21.20
2018-12-27T21:05:59.843Z,21.20
2018-12-27T21:08:29.821Z,21.20
2018-12-27T21:10:59.795Z,21.10
2018-12-27T21:13:29.754Z,21.10
2018-12-27T21:15:59.819Z,21.10
2018-12-27T21:18:29.891Z,21.10
2018-12-27T21:20:59.836Z,21.10
2018-12-27T21:23:29.833Z,21.10
2018-12-27T21:25:59.855Z,21.10
2018-12-27T21:28:29.891Z,21.10
2018-12-27T21:30:59.882Z,21.20
2018-12-27T21:33:29.931Z,21.20
2018-12-27T21:35:59.990Z,21.30
2018-12-27T21:38:30.105Z,21.30
2018-12-27T21:41:00.090Z,21.30
2018-12-27T21:43:30.138Z,21.40
2018-12-27T21:46:00.216Z,21.40
2018-12-27T21:48:30.241Z,21.40
2018-12-27T21:51:00.217Z,21.50
2018-12-27T21:53:30.302Z,21.50
2018-12-27T21:56:00.359Z,21.50
2018-12-27T21:58:30.370Z,21.50
2018-12-27T22:01:00.764Z,21.50
2018-12-27T22:03:30.846Z,21.50
2018-12-27T22:06:00.832Z,21.50
2018-12-27T22:08:30.860Z,21.60
2018-12-27T22:11:00.802Z,21.60
2018-12-27T22:13:30.846Z,21.60
2018-12-27T22:16:00.798Z,21.60
2018-12-27T22:18:30.793Z,21.60
2018-12-27T22:21:00.738Z,21.70
2018-12-27T22:23:30.690Z,21.60
2018-12-27T22:26:00.652Z,21.70
2018-12-27T22:28:30.737Z,21.70
2018-12-27T22:31:00.764Z,21.70
2018-12-27T22:33:30.778Z,21.70
2018-12-27T22:36:00.751Z,21.70
2018-12-27T22:38:35.541Z,21.70
2018-12-27T22:41:02.430Z,21.70
2018-12-27T22:43:32.395Z,21.70
2018-12-27T22:46:02.430Z,21.60
2018-12-27T22:48:32.540Z,21.70
2018-12-27T22:51:02.496Z,21.70
2018-12-27T22:53:32.480Z,21.70
2018-12-27T22:56:02.592Z,21.70
2018-12-27T22:58:32.545Z,21.70
2018-12-27T23:01:02.582Z,21.70
2018-12-27T23:03:32.606Z,21.70
2018-12-27T23:06:02.581Z,21.70
2018-12-27T23:08:32.615Z,21.60
2018-12-27T23:11:02.579Z,21.60
2018-12-27T23:13:32.675Z,21.60
2018-12-27T23:16:02.673Z,21.50
2018-12-27T23:18:32.641Z,21.50
2018-12-27T23:21:02.593Z,21.50
2018-12-27T23:23:32.549Z,21.40
2018-12-27T23:26:02.527Z,21.40
2018-12-27T23:28:32.546Z,21.40
2018-12-27T23:31:02.818Z,21.30
2018-12-27T23:33:32.770Z,21.30
2018-12-27T23:36:02.773Z,21.30
2018-12-27T23:38:32.773Z,21.20
2018-12-27T23:41:02.735Z,21.20
2018-12-27T23:43:32.719Z,21.10
2018-12-27T23:46:02.674Z,21.10
2018-12-27T23:48:32.639Z,21.10
2018-12-27T23:51:02.658Z,21.10
2018-12-27T23:53:32.618Z,21.10
2018-12-27T23:56:02.573Z,21.10
2018-12-27T23:58:32.574Z,21.10
